createdAt,value
2018-04-18T00:01:22.670Z,65.05
2018-04-18T00:03:51.040Z,65.33
2018-04-18T00:06:18.513Z,65.40
2018-04-18T00:08:46.006Z,65.42
2018-04-18T00:11:13.515Z,65.24
2018-04-18T00:13:41.017Z,65.17
2018-04-18T00:16:08.979Z,65.20
2018-04-18T00:18:36.465Z,65.40
2018-04-18T00:21:03.956Z,65.58
2018-04-18T00:23:31.485Z,65.58
2018-04-18T00:25:58.973Z,65.15
2018-04-18T00:28:26.511Z,65.26
2018-04-18T00:30:54.026Z,65.20
2018-04-18T00:33:21.526Z,65.76
2018-04-18T00:35:49.030Z,65.69
2018-04-18T00:38:16.510Z,65.85
2018-04-18T00:40:43.994Z,66.35
2018-04-18T00:43:11.584Z,66.02
2018-04-18T00:45:39.240Z,66.12
2018-04-18T00:48:06.729Z,66.27
2018-04-18T00:50:34.682Z,66.19
2018-04-18T00:53:02.170Z,66.34
2018-04-18T00:55:29.647Z,66.30
2018-04-18T00:57:57.139Z,66.61
2018-04-18T01:00:24.649Z,66.62
2018-04-18T01:02:52.115Z,66.54
2018-04-18T01:05:19.630Z,66.75
2018-04-18T01:07:47.139Z,67.06
2018-04-18T01:10:14.687Z,67.41
2018-04-18T01:12:42.172Z,67.53
2018-04-18T01:15:09.662Z,67.90
2018-04-18T01:17:37.189Z,68.32
2018-04-18T01:20:04.683Z,68.20
2018-04-18T01:22:32.169Z,67.75
2018-04-18T01:24:59.689Z,67.83
2018-04-18T01:27:27.206Z,67.82
2018-04-18T01:29:54.689Z,67.87
2018-04-18T01:32:22.196Z,68.00
2018-04-18T01:34:49.673Z,67.82
2018-04-18T01:37:17.158Z,67.91
2018-04-18T01:39:44.634Z,68.05
2018-04-18T01:42:12.142Z,67.75
2018-04-18T01:44:39.614Z,68.21
2018-04-18T01:47:07.114Z,68.01
2018-04-18T01:49:34.605Z,68.22
2018-04-18T01:52:02.083Z,68.58
2018-04-18T01:54:29.581Z,69.07
2018-04-18T01:56:57.106Z,69.33
2018-04-18T01:59:24.698Z,69.75
2018-04-18T02:01:52.163Z,69.33
2018-04-18T02:04:19.639Z,69.52
2018-04-18T02:06:47.131Z,69.49
2018-04-18T02:09:14.631Z,69.91
2018-04-18T02:11:42.180Z,70.32
2018-04-18T02:14:09.667Z,70.66
2018-04-18T02:16:37.168Z,70.20
2018-04-18T02:19:04.661Z,70.20
2018-04-18T02:21:32.143Z,69.88
2018-04-18T02:23:59.657Z,69.23
2018-04-18T02:26:27.126Z,69.66
2018-04-18T02:28:54.600Z,70.43
2018-04-18T02:31:22.107Z,70.53
2018-04-18T02:33:49.581Z,70.64
2018-04-18T02:36:17.079Z,70.84
2018-04-18T02:38:44.545Z,70.38
2018-04-18T02:41:12.020Z,70.83
2018-04-18T02:43:39.498Z,70.59
2018-04-18T02:46:06.993Z,69.68
2018-04-18T02:48:34.460Z,68.95
2018-04-18T02:51:01.957Z,68.87
2018-04-18T02:53:29.422Z,68.45
2018-04-18T02:55:56.933Z,68.90
2018-04-18T02:58:24.426Z,69.38
2018-04-18T03:00:51.922Z,70.12
2018-04-18T03:03:19.451Z,70.14
2018-04-18T03:05:47.686Z,69.75
2018-04-18T03:08:15.142Z,70.09
2018-04-18T03:10:42.616Z,70.27
2018-04-18T03:13:10.082Z,69.99
2018-04-18T03:15:37.579Z,70.51
2018-04-18T03:18:05.049Z,70.71
2018-04-18T03:20:32.909Z,70.30
2018-04-18T03:23:00.473Z,69.93
2018-04-18T03:25:27.926Z,69.79
2018-04-18T03:27:55.442Z,70.15
2018-04-18T03:30:23.401Z,69.45
2018-04-18T03:32:50.874Z,69.37
2018-04-18T03:35:18.351Z,68.89
2018-04-18T03:37:45.858Z,68.92
2018-04-18T03:40:13.322Z,68.38
2018-04-18T03:42:41.025Z,68.49
2018-04-18T03:45:08.511Z,68.69
2018-04-18T03:47:36.008Z,68.78
2018-04-18T03:50:03.501Z,68.55
2018-04-18T03:52:30.985Z,68.73
2018-04-18T03:54:58.457Z,69.46
2018-04-18T03:57:25.928Z,68.93
2018-04-18T03:59:53.397Z,68.87
2018-04-18T04:02:20.880Z,68.94
2018-04-18T04:04:48.427Z,69.35
2018-04-18T04:09:49.569Z,69.12
2018-04-18T04:12:17.034Z,69.17
2018-04-18T04:14:44.539Z,69.00
2018-04-18T04:17:23.793Z,68.73
2018-04-18T04:20:03.113Z,68.43
2018-04-18T04:22:42.434Z,68.67
2018-04-18T04:25:09.906Z,68.48
2018-04-18T04:27:37.364Z,68.68
2018-04-18T04:30:05.718Z,68.46
2018-04-18T04:32:33.169Z,68.45
2018-04-18T04:35:00.658Z,68.24
2018-04-18T04:37:28.130Z,68.20
2018-04-18T04:39:55.908Z,67.94
2018-04-18T04:42:23.418Z,68.05
2018-04-18T04:44:50.914Z,67.46
2018-04-18T04:47:18.385Z,67.45
2018-04-18T04:49:45.880Z,67.13
2018-04-18T04:52:13.349Z,66.87
2018-04-18T04:54:40.812Z,67.18
2018-04-18T04:57:08.283Z,66.96
2018-04-18T04:59:35.756Z,66.68
2018-04-18T05:02:03.205Z,66.77
2018-04-18T05:04:30.764Z,66.86
2018-04-18T05:06:59.289Z,66.57
2018-04-18T05:09:26.825Z,66.33
2018-04-18T05:11:54.311Z,65.67
2018-04-18T05:14:21.803Z,65.35
2018-04-18T05:16:49.277Z,65.50
2018-04-18T05:19:16.778Z,65.52
2018-04-18T05:21:44.242Z,65.46
2018-04-18T05:24:11.731Z,64.88
2018-04-18T05:26:39.184Z,64.52
2018-04-18T05:29:06.658Z,64.42
2018-04-18T05:31:34.126Z,64.21
2018-04-18T05:34:01.604Z,64.14
2018-04-18T05:36:29.092Z,64.09
2018-04-18T05:38:56.578Z,63.88
2018-04-18T05:41:24.095Z,63.48
2018-04-18T05:43:51.578Z,63.20
2018-04-18T05:46:19.076Z,62.44
2018-04-18T05:48:46.555Z,62.88
2018-04-18T05:51:14.050Z,62.47
2018-04-18T05:53:41.522Z,62.35
2018-04-18T05:56:09.012Z,62.26
2018-04-18T05:58:36.539Z,62.02
2018-04-18T06:01:04.097Z,61.92
2018-04-18T06:03:31.574Z,61.50
2018-04-18T06:05:59.030Z,61.10
2018-04-18T06:08:26.501Z,61.20
2018-04-18T06:10:54.035Z,60.71
2018-04-18T06:13:21.503Z,60.31
2018-04-18T06:15:48.992Z,60.21
2018-04-18T06:18:16.469Z,60.00
2018-04-18T06:20:44.037Z,60.26
2018-04-18T06:23:11.531Z,60.09
2018-04-18T06:28:05.964Z,59.69
2018-04-18T06:30:33.499Z,59.32
2018-04-18T06:33:01.013Z,59.04
2018-04-18T06:35:28.488Z,58.90
2018-04-18T06:37:56.151Z,58.45
2018-04-18T06:40:23.638Z,58.23
2018-04-18T06:42:51.846Z,58.04
2018-04-18T06:45:19.321Z,57.73
2018-04-18T06:47:46.819Z,57.86
2018-04-18T06:50:14.376Z,57.45
2018-04-18T06:52:41.853Z,57.01
2018-04-18T06:55:09.351Z,56.99
2018-04-18T06:57:36.878Z,56.88
2018-04-18T07:00:04.375Z,56.33
2018-04-18T07:02:31.856Z,57.17
2018-04-18T07:04:59.340Z,57.18
2018-04-18T07:07:26.804Z,56.89
2018-04-18T07:09:54.341Z,57.37
2018-04-18T07:12:21.815Z,57.78
2018-04-18T07:14:49.314Z,57.22
2018-04-18T07:17:16.807Z,56.89
2018-04-18T07:19:44.293Z,56.27
2018-04-18T07:22:12.189Z,56.36
2018-04-18T07:24:39.689Z,56.55
2018-04-18T07:27:07.158Z,56.16
2018-04-18T07:29:34.657Z,56.29
2018-04-18T07:32:02.186Z,56.29
2018-04-18T07:34:29.698Z,55.81
2018-04-18T07:36:57.194Z,55.50
2018-04-18T07:39:24.676Z,55.58
2018-04-18T07:41:52.145Z,55.36
2018-04-18T07:44:19.631Z,55.67
2018-04-18T07:46:47.118Z,55.89
2018-04-18T07:49:14.603Z,55.94
2018-04-18T07:51:42.106Z,55.75
2018-04-18T07:54:09.620Z,55.63
2018-04-18T07:56:37.123Z,56.31
2018-04-18T07:59:04.590Z,55.71
2018-04-18T08:01:32.087Z,55.76
2018-04-18T08:03:59.572Z,55.53
2018-04-18T08:06:27.086Z,55.52
2018-04-18T08:08:54.564Z,55.49
2018-04-18T08:11:22.107Z,54.92
2018-04-18T08:13:49.598Z,54.82
2018-04-18T08:16:17.079Z,55.15
2018-04-18T08:18:44.622Z,55.05
2018-04-18T08:21:12.235Z,54.88
2018-04-18T08:23:39.728Z,54.58
2018-04-18T08:26:07.418Z,55.33
2018-04-18T08:28:34.941Z,54.79
2018-04-18T08:31:02.443Z,53.98
2018-04-18T08:33:29.951Z,53.67
2018-04-18T08:35:57.431Z,53.66
2018-04-18T08:38:24.917Z,53.31
2018-04-18T08:40:52.469Z,53.42
2018-04-18T08:43:19.933Z,53.41
2018-04-18T08:45:47.406Z,53.26
2018-04-18T08:48:14.953Z,52.81
2018-04-18T08:50:42.445Z,52.20
2018-04-18T08:53:09.933Z,52.43
2018-04-18T08:55:37.417Z,51.81
2018-04-18T08:58:04.887Z,51.91
2018-04-18T09:00:32.465Z,52.15
2018-04-18T09:02:59.961Z,51.33
2018-04-18T09:05:27.455Z,51.09
2018-04-18T09:07:54.936Z,50.52
2018-04-18T09:10:22.411Z,50.14
2018-04-18T09:12:49.875Z,49.62
2018-04-18T09:15:17.407Z,49.51
2018-04-18T09:17:44.894Z,47.37
2018-04-18T09:20:12.391Z,46.82
2018-04-18T09:22:39.903Z,46.96
2018-04-18T09:25:07.395Z,47.15
2018-04-18T09:27:34.872Z,47.61
2018-04-18T09:30:02.342Z,47.55
2018-04-18T09:32:29.890Z,48.25
2018-04-18T09:34:57.395Z,47.81
2018-04-18T09:37:24.930Z,47.95
2018-04-18T09:39:52.417Z,48.34
2018-04-18T09:42:19.921Z,47.45
2018-04-18T09:44:47.419Z,46.60
2018-04-18T09:47:14.931Z,46.29
2018-04-18T09:49:42.399Z,46.98
2018-04-18T09:52:09.965Z,45.85
2018-04-18T09:54:37.473Z,45.57
2018-04-18T09:57:04.963Z,45.93
2018-04-18T09:59:32.453Z,46.64
2018-04-18T10:02:05.521Z,46.65
2018-04-18T10:04:33.001Z,46.04
2018-04-18T10:07:00.535Z,46.12
2018-04-18T10:09:28.005Z,45.04
2018-04-18T10:11:55.479Z,44.57
2018-04-18T10:14:22.989Z,42.36
2018-04-18T10:16:50.502Z,44.66
2018-04-18T10:19:17.970Z,42.73
2018-04-18T10:21:45.522Z,43.37
2018-04-18T10:24:13.019Z,43.82
2018-04-18T10:26:40.577Z,43.62
2018-04-18T10:29:08.111Z,43.15
2018-04-18T10:31:35.718Z,43.59
2018-04-18T10:34:03.161Z,43.97
2018-04-18T10:36:30.829Z,43.85
2018-04-18T10:38:58.310Z,43.46
2018-04-18T10:41:25.795Z,43.07
2018-04-18T10:43:53.297Z,42.37
2018-04-18T10:46:20.818Z,41.71
2018-04-18T10:48:48.305Z,41.65
2018-04-18T10:51:15.781Z,41.34
2018-04-18T10:53:43.297Z,41.14
2018-04-18T10:56:10.831Z,40.20
2018-04-18T10:58:38.370Z,40.64
2018-04-18T11:01:05.812Z,40.42
2018-04-18T11:03:33.297Z,39.41
2018-04-18T11:06:00.822Z,39.66
2018-04-18T11:08:28.336Z,39.16
2018-04-18T11:10:55.801Z,39.06
2018-04-18T11:13:23.306Z,39.45
2018-04-18T11:15:50.781Z,38.22
2018-04-18T11:18:18.358Z,38.37
2018-04-18T11:20:45.839Z,37.83
2018-04-18T11:23:13.311Z,37.45
2018-04-18T11:25:40.823Z,37.45
2018-04-18T11:28:08.326Z,37.39
2018-04-18T11:30:35.801Z,36.22
2018-04-18T11:33:03.282Z,36.57
2018-04-18T11:35:30.774Z,37.04
2018-04-18T11:37:58.314Z,38.09
2018-04-18T11:40:25.790Z,38.04
2018-04-18T11:42:53.280Z,37.53
2018-04-18T11:45:20.782Z,37.30
2018-04-18T11:47:48.266Z,36.12
2018-04-18T11:50:15.750Z,36.61
2018-04-18T11:52:43.296Z,36.83
2018-04-18T11:55:10.779Z,37.00
2018-04-18T11:57:38.317Z,36.01
2018-04-18T12:00:05.817Z,35.35
2018-04-18T12:02:33.320Z,34.82
2018-04-18T12:05:00.782Z,34.49
2018-04-18T12:07:28.310Z,33.94
2018-04-18T12:09:55.823Z,33.74
2018-04-18T12:12:23.293Z,34.78
2018-04-18T12:14:50.812Z,34.40
2018-04-18T12:17:18.283Z,34.00
2018-04-18T12:19:45.739Z,33.19
2018-04-18T12:22:13.293Z,34.18
2018-04-18T12:24:40.764Z,33.87
2018-04-18T12:27:08.236Z,33.95
2018-04-18T12:29:35.768Z,33.64
2018-04-18T12:32:03.235Z,33.17
2018-04-18T12:34:30.840Z,32.19
2018-04-18T12:36:58.365Z,31.47
2018-04-18T12:39:25.827Z,29.51
2018-04-18T12:41:53.303Z,28.46
2018-04-18T12:44:20.775Z,28.23
2018-04-18T12:46:48.268Z,27.32
2018-04-18T12:49:15.734Z,28.23
2018-04-18T12:51:43.232Z,27.98
2018-04-18T12:54:10.723Z,27.11
2018-04-18T12:56:38.206Z,28.92
2018-04-18T12:59:05.723Z,28.44
2018-04-18T13:01:33.231Z,26.37
2018-04-18T13:04:00.779Z,26.09
2018-04-18T13:06:28.301Z,27.11
2018-04-18T13:08:55.751Z,26.18
2018-04-18T13:11:23.248Z,26.32
2018-04-18T13:13:51.491Z,25.82
2018-04-18T13:16:18.965Z,26.34
2018-04-18T13:18:46.451Z,26.04
2018-04-18T13:21:13.913Z,25.82
2018-04-18T13:23:41.419Z,24.99
2018-04-18T13:26:08.923Z,25.40
2018-04-18T13:28:36.444Z,24.59
2018-04-18T13:31:03.920Z,24.50
2018-04-18T13:33:31.819Z,24.30
2018-04-18T13:35:59.354Z,24.63
2018-04-18T13:38:26.816Z,25.43
2018-04-18T13:40:54.343Z,25.37
2018-04-18T13:43:21.823Z,25.61
2018-04-18T13:45:49.924Z,25.65
2018-04-18T13:48:17.452Z,25.49
2018-04-18T13:50:44.952Z,24.51
2018-04-18T13:53:12.474Z,24.82
2018-04-18T13:55:39.981Z,24.19
2018-04-18T13:58:07.448Z,24.08
2018-04-18T14:00:34.945Z,23.94
2018-04-18T14:03:02.418Z,24.44
2018-04-18T14:05:29.979Z,23.96
2018-04-18T14:07:57.455Z,23.67
2018-04-18T14:10:24.920Z,23.92
2018-04-18T14:12:52.427Z,23.74
2018-04-18T14:15:21.484Z,22.82
2018-04-18T14:17:49.021Z,23.51
2018-04-18T14:20:16.494Z,23.22
2018-04-18T14:22:43.982Z,21.13
2018-04-18T14:25:11.466Z,20.92
2018-04-18T14:27:39.006Z,20.34
2018-04-18T14:30:06.469Z,19.39
2018-04-18T14:32:35.155Z,19.01
2018-04-18T14:35:02.644Z,19.20
2018-04-18T14:37:30.126Z,19.68
2018-04-18T14:39:57.651Z,20.67
2018-04-18T14:42:25.152Z,20.75
2018-04-18T14:44:52.634Z,20.82
2018-04-18T14:47:20.124Z,19.68
2018-04-18T14:49:47.585Z,19.09
2018-04-18T14:52:15.107Z,18.86
2018-04-18T14:54:42.607Z,19.20
2018-04-18T14:57:10.123Z,18.42
2018-04-18T14:59:37.624Z,18.54
2018-04-18T15:02:05.143Z,18.35
2018-04-18T15:04:32.643Z,16.69
2018-04-18T15:07:00.155Z,17.73
2018-04-18T15:09:27.627Z,17.27
2018-04-18T15:11:55.145Z,17.44
2018-04-18T15:14:22.636Z,17.11
2018-04-18T15:16:50.283Z,17.64
2018-04-18T15:19:17.765Z,17.73
2018-04-18T15:21:45.301Z,18.33
2018-04-18T15:24:12.819Z,18.50
2018-04-18T15:26:40.349Z,17.63
2018-04-18T15:29:07.819Z,18.37
2018-04-18T15:31:35.305Z,18.63
2018-04-18T15:34:02.856Z,17.69
2018-04-18T15:36:30.928Z,17.11
2018-04-18T15:38:58.375Z,16.71
2018-04-18T15:41:25.892Z,17.17
2018-04-18T15:43:53.354Z,16.36
2018-04-18T15:46:20.865Z,16.03
2018-04-18T15:48:48.375Z,16.03
2018-04-18T15:51:15.962Z,16.28
2018-04-18T15:53:43.492Z,17.13
2018-04-18T15:56:11.040Z,17.05
2018-04-18T15:58:38.540Z,17.33
2018-04-18T16:01:06.070Z,17.26
2018-04-18T16:03:33.529Z,17.33
2018-04-18T16:06:01.040Z,17.10
2018-04-18T16:08:28.567Z,18.50
2018-04-18T16:10:56.059Z,18.21
2018-04-18T16:13:23.796Z,18.06
2018-04-18T16:15:51.309Z,17.99
2018-04-18T16:18:18.896Z,18.99
2018-04-18T16:20:46.411Z,19.23
2018-04-18T16:23:13.869Z,19.50
2018-04-18T16:25:41.561Z,19.60
2018-04-18T16:28:09.013Z,19.59
2018-04-18T16:30:40.969Z,19.44
2018-04-18T16:33:09.563Z,19.07
2018-04-18T16:35:37.022Z,19.33
2018-04-18T16:38:04.649Z,19.69
2018-04-18T16:40:32.351Z,19.90
2018-04-18T16:42:59.837Z,19.50
2018-04-18T16:45:27.347Z,20.17
2018-04-18T16:47:54.846Z,20.84
2018-04-18T16:50:22.324Z,21.87
2018-04-18T16:52:49.843Z,21.49
2018-04-18T16:55:17.368Z,21.84
2018-04-18T16:57:44.862Z,21.79
2018-04-18T17:00:12.348Z,22.27
2018-04-18T17:02:39.912Z,22.79
2018-04-18T17:05:07.362Z,22.65
2018-04-18T17:07:34.841Z,22.70
2018-04-18T17:10:02.357Z,23.02
2018-04-18T17:15:03.710Z,23.42
2018-04-18T17:17:31.265Z,23.69
2018-04-18T17:19:58.743Z,24.69
2018-04-18T17:22:26.499Z,25.55
2018-04-18T17:24:53.972Z,26.44
2018-04-18T17:27:21.491Z,27.37
2018-04-18T17:29:48.978Z,27.85
2018-04-18T17:32:16.482Z,28.94
2018-04-18T17:34:44.619Z,29.59
2018-04-18T17:37:12.210Z,30.47
2018-04-18T17:39:39.813Z,30.94
2018-04-18T17:42:07.456Z,31.83
2018-04-18T17:44:35.826Z,32.42
2018-04-18T17:47:03.332Z,33.06
2018-04-18T17:49:30.823Z,33.58
2018-04-18T17:51:58.389Z,33.97
2018-04-18T17:54:25.882Z,34.29
2018-04-18T17:56:53.378Z,34.45
2018-04-18T17:59:20.928Z,34.93
2018-04-18T18:01:48.422Z,35.10
2018-04-18T18:04:15.964Z,35.49
2018-04-18T18:06:43.447Z,35.94
2018-04-18T18:09:10.915Z,36.18
2018-04-18T18:11:38.550Z,36.61
2018-04-18T18:14:06.016Z,36.85
2018-04-18T18:16:33.501Z,37.21
2018-04-18T18:19:01.070Z,37.51
2018-04-18T18:21:28.598Z,37.65
2018-04-18T18:23:56.087Z,38.09
2018-04-18T18:26:23.647Z,38.33
2018-04-18T18:28:51.127Z,38.44
2018-04-18T18:31:18.657Z,38.62
2018-04-18T18:33:46.159Z,38.96
2018-04-18T18:36:13.709Z,39.51
2018-04-18T18:38:41.208Z,39.80
2018-04-18T18:41:08.760Z,40.01
2018-04-18T18:43:36.293Z,40.25
2018-04-18T18:46:03.775Z,40.60
2018-04-18T18:48:31.374Z,40.97
2018-04-18T18:50:58.945Z,41.44
2018-04-18T18:53:26.442Z,41.85
2018-04-18T18:55:54.540Z,42.11
2018-04-18T18:58:22.034Z,42.27
2018-04-18T19:00:49.502Z,42.37
2018-04-18T19:03:16.991Z,42.68
2018-04-18T19:05:44.479Z,43.16
2018-04-18T19:08:11.992Z,43.83
2018-04-18T19:10:39.506Z,43.65
2018-04-18T19:13:07.050Z,44.03
2018-04-18T19:15:34.583Z,43.89
2018-04-18T19:18:02.075Z,44.10
2018-04-18T19:20:29.552Z,44.25
2018-04-18T19:22:57.074Z,44.34
2018-04-18T19:25:24.575Z,44.55
2018-04-18T19:27:52.069Z,45.20
2018-04-18T19:30:19.621Z,46.34
2018-04-18T19:32:47.153Z,45.98
2018-04-18T19:35:14.830Z,46.28
2018-04-18T19:37:42.539Z,46.41
2018-04-18T19:40:10.068Z,46.38
2018-04-18T19:42:38.017Z,46.46
2018-04-18T19:45:06.963Z,46.46
2018-04-18T19:47:34.657Z,46.39
2018-04-18T19:50:02.333Z,46.70
2018-04-18T19:52:30.757Z,47.01
2018-04-18T19:54:58.353Z,46.92
2018-04-18T19:57:26.096Z,47.30
2018-04-18T19:59:53.777Z,47.06
2018-04-18T20:02:21.418Z,47.14
2018-04-18T20:04:49.182Z,46.77
2018-04-18T20:07:16.787Z,46.64
2018-04-18T20:09:44.404Z,46.29
2018-04-18T20:12:12.024Z,46.66
2018-04-18T20:14:41.006Z,46.57
2018-04-18T20:17:08.642Z,46.84
2018-04-18T20:19:36.388Z,47.21
2018-04-18T20:22:04.144Z,47.55
2018-04-18T20:24:31.668Z,47.90
2018-04-18T20:27:03.022Z,48.22
2018-04-18T20:29:31.848Z,48.57
2018-04-18T20:32:00.347Z,48.94
2018-04-18T20:34:27.990Z,49.32
2018-04-18T20:36:55.538Z,49.35
2018-04-18T20:39:23.112Z,49.58
2018-04-18T20:41:54.691Z,49.89
2018-04-18T20:44:22.327Z,50.13
2018-04-18T20:46:53.267Z,50.41
2018-04-18T20:49:20.971Z,50.73
2018-04-18T20:51:48.633Z,50.98
2018-04-18T20:54:16.268Z,51.33
2018-04-18T20:56:44.399Z,51.83
2018-04-18T20:59:11.900Z,52.45
2018-04-18T21:01:39.515Z,52.64
2018-04-18T21:04:07.128Z,53.09
2018-04-18T21:06:34.767Z,52.97
2018-04-18T21:09:02.439Z,53.10
2018-04-18T21:11:35.539Z,53.38
2018-04-18T21:14:03.204Z,53.55
2018-04-18T21:16:31.774Z,53.60
2018-04-18T21:18:59.418Z,54.00
2018-04-18T21:21:26.998Z,54.08
2018-04-18T21:23:54.712Z,53.99
2018-04-18T21:26:22.476Z,54.23
2018-04-18T21:28:50.010Z,53.90
2018-04-18T21:31:17.563Z,53.41
2018-04-18T21:33:45.143Z,53.55
2018-04-18T21:36:12.655Z,53.62
2018-04-18T21:38:40.188Z,53.49
2018-04-18T21:41:07.971Z,53.12
2018-04-18T21:43:35.557Z,53.58
2018-04-18T21:46:03.046Z,53.33
2018-04-18T21:48:31.497Z,53.42
2018-04-18T21:50:59.134Z,53.50
2018-04-18T21:53:26.629Z,53.31
2018-04-18T21:55:54.123Z,53.48
2018-04-18T21:58:21.633Z,53.09
2018-04-18T22:00:49.123Z,52.89
2018-04-18T22:03:16.615Z,53.27
2018-04-18T22:05:44.135Z,53.47
2018-04-18T22:08:11.616Z,53.50
2018-04-18T22:10:39.132Z,53.89
2018-04-18T22:13:06.645Z,54.38
2018-04-18T22:15:36.014Z,54.36
2018-04-18T22:18:04.820Z,54.59
2018-04-18T22:20:33.515Z,54.43
2018-04-18T22:23:01.040Z,54.55
2018-04-18T22:25:28.810Z,54.61
2018-04-18T22:27:56.314Z,54.64
2018-04-18T22:30:23.844Z,54.62
2018-04-18T22:32:51.369Z,54.72
2018-04-18T22:35:18.959Z,55.05
2018-04-18T22:37:46.503Z,55.22
2018-04-18T22:40:13.971Z,55.72
2018-04-18T22:42:41.460Z,56.03
2018-04-18T22:45:08.962Z,56.12
2018-04-18T22:47:36.446Z,56.32
2018-04-18T22:50:04.832Z,56.25
2018-04-18T22:52:32.390Z,56.73
2018-04-18T22:55:00.327Z,57.12
2018-04-18T22:57:27.825Z,57.48
2018-04-18T22:59:55.352Z,57.50
2018-04-18T23:02:22.828Z,57.72
2018-04-18T23:04:50.422Z,58.33
2018-04-18T23:07:17.956Z,58.16
2018-04-18T23:09:45.463Z,58.34
2018-04-18T23:12:13.264Z,58.58
2018-04-18T23:14:40.744Z,58.81
2018-04-18T23:17:08.584Z,59.51
2018-04-18T23:19:36.219Z,59.86
2018-04-18T23:22:04.492Z,60.15
2018-04-18T23:24:32.565Z,60.62
2018-04-18T23:27:00.104Z,60.80
2018-04-18T23:29:27.779Z,61.14
2018-04-18T23:31:55.297Z,61.24
2018-04-18T23:34:22.764Z,61.31
2018-04-18T23:36:50.250Z,61.42
2018-04-18T23:39:17.795Z,61.94
2018-04-18T23:41:45.285Z,62.81
2018-04-18T23:44:12.848Z,63.02
2018-04-18T23:46:40.332Z,63.25
2018-04-18T23:49:07.802Z,63.36
2018-04-18T23:51:35.328Z,63.54
2018-04-18T23:54:02.814Z,63.69
2018-04-18T23:56:30.870Z,63.84
2018-04-18T23:58:58.347Z,64.11
